sensor_id;sensor_type;location;lat;lon;timestamp;P1;durP1;ratioP1;P2;durP2;ratioP2
27269;SDS011;14769;56.934;24.176;2022-10-16T00:04:36;25.52;;;15.45;;
27269;SDS011;14769;56.934;24.176;2022-10-16T00:06:42;24.52;;;15.82;;
27269;SDS011;14769;56.934;24.176;2022-10-16T00:07:45;23.63;;;15.35;;
27269;SDS011;14769;56.934;24.176;2022-10-16T00:08:47;27.45;;;15.77;;
27269;SDS011;14769;56.934;24.176;2022-10-16T00:09:52;24.40;;;15.60;;
27269;SDS011;14769;56.934;24.176;2022-10-16T00:11:04;28.40;;;15.70;;
27269;SDS011;14769;56.934;24.176;2022-10-16T00:12:08;22.30;;;16.55;;
27269;SDS011;14769;56.934;24.176;2022-10-16T00:13:11;24.02;;;15.95;;
27269;SDS011;14769;56.934;24.176;2022-10-16T00:14:14;25.83;;;16.42;;
27269;SDS011;14769;56.934;24.176;2022-10-16T00:15:16;24.40;;;15.88;;
27269;SDS011;14769;56.934;24.176;2022-10-16T00:16:19;22.85;;;16.08;;
27269;SDS011;14769;56.934;24.176;2022-10-16T00:17:21;25.35;;;16.27;;
27269;SDS011;14769;56.934;24.176;2022-10-16T00:18:24;22.45;;;16.00;;
27269;SDS011;14769;56.934;24.176;2022-10-16T00:19:27;24.65;;;15.63;;
27269;SDS011;14769;56.934;24.176;2022-10-16T00:20:29;24.15;;;16.63;;
27269;SDS011;14769;56.934;24.176;2022-10-16T00:21:32;27.13;;;16.67;;
27269;SDS011;14769;56.934;24.176;2022-10-16T00:22:37;22.45;;;15.98;;
27269;SDS011;14769;56.934;24.176;2022-10-16T00:23:45;22.48;;;16.30;;
27269;SDS011;14769;56.934;24.176;2022-10-16T00:24:52;22.35;;;15.52;;
27269;SDS011;14769;56.934;24.176;2022-10-16T00:25:57;21.88;;;15.38;;
27269;SDS011;14769;56.934;24.176;2022-10-16T00:27:04;22.92;;;16.05;;
27269;SDS011;14769;56.934;24.176;2022-10-16T00:28:17;24.13;;;15.60;;
27269;SDS011;14769;56.934;24.176;2022-10-16T00:29:20;26.48;;;16.05;;
27269;SDS011;14769;56.934;24.176;2022-10-16T00:30:23;22.83;;;15.90;;
27269;SDS011;14769;56.934;24.176;2022-10-16T00:31:25;24.38;;;16.40;;
27269;SDS011;14769;56.934;24.176;2022-10-16T00:32:28;24.63;;;16.10;;
27269;SDS011;14769;56.934;24.176;2022-10-16T00:33:32;27.15;;;17.10;;
27269;SDS011;14769;56.934;24.176;2022-10-16T00:34:38;27.45;;;17.05;;
27269;SDS011;14769;56.934;24.176;2022-10-16T00:35:42;27.08;;;16.48;;
27269;SDS011;14769;56.934;24.176;2022-10-16T00:36:45;22.58;;;16.20;;
27269;SDS011;14769;56.934;24.176;2022-10-16T00:37:50;28.20;;;16.35;;
27269;SDS011;14769;56.934;24.176;2022-10-16T00:41:35;23.08;;;15.77;;
27269;SDS011;14769;56.934;24.176;2022-10-16T00:42:37;21.58;;;15.73;;
27269;SDS011;14769;56.934;24.176;2022-10-16T00:43:44;24.40;;;17.05;;
27269;SDS011;14769;56.934;24.176;2022-10-16T00:44:53;24.63;;;15.85;;
27269;SDS011;14769;56.934;24.176;2022-10-16T00:45:59;30.83;;;16.92;;
27269;SDS011;14769;56.934;24.176;2022-10-16T00:47:39;21.92;;;15.82;;
27269;SDS011;14769;56.934;24.176;2022-10-16T00:50:22;26.35;;;17.13;;
27269;SDS011;14769;56.934;24.176;2022-10-16T00:51:54;23.27;;;16.67;;
27269;SDS011;14769;56.934;24.176;2022-10-16T00:52:57;23.60;;;16.95;;
27269;SDS011;14769;56.934;24.176;2022-10-16T00:54:13;26.08;;;16.70;;
27269;SDS011;14769;56.934;24.176;2022-10-16T00:55:23;26.60;;;17.63;;
27269;SDS011;14769;56.934;24.176;2022-10-16T00:56:30;24.33;;;16.88;;
27269;SDS011;14769;56.934;24.176;2022-10-16T00:57:37;26.83;;;16.52;;
27269;SDS011;14769;56.934;24.176;2022-10-16T00:58:42;24.95;;;16.35;;
27269;SDS011;14769;56.934;24.176;2022-10-16T00:59:52;29.10;;;16.70;;
27269;SDS011;14769;56.934;24.176;2022-10-16T01:00:55;23.38;;;16.52;;
27269;SDS011;14769;56.934;24.176;2022-10-16T01:02:09;25.60;;;17.15;;
27269;SDS011;14769;56.934;24.176;2022-10-16T01:03:26;30.77;;;18.08;;
27269;SDS011;14769;56.934;24.176;2022-10-16T01:04:37;24.25;;;16.45;;
27269;SDS011;14769;56.934;24.176;2022-10-16T01:06:03;25.42;;;17.23;;
27269;SDS011;14769;56.934;24.176;2022-10-16T01:07:30;25.20;;;16.70;;
27269;SDS011;14769;56.934;24.176;2022-10-16T01:10:25;22.90;;;16.92;;
27269;SDS011;14769;56.934;24.176;2022-10-16T01:13:10;24.00;;;16.77;;
27269;SDS011;14769;56.934;24.176;2022-10-16T01:17:41;23.55;;;17.15;;
27269;SDS011;14769;56.934;24.176;2022-10-16T01:18:39;26.50;;;16.65;;
27269;SDS011;14769;56.934;24.176;2022-10-16T01:20:26;25.08;;;15.95;;
27269;SDS011;14769;56.934;24.176;2022-10-16T01:21:36;20.80;;;16.50;;
27269;SDS011;14769;56.934;24.176;2022-10-16T01:24:33;23.00;;;17.27;;
27269;SDS011;14769;56.934;24.176;2022-10-16T01:27:39;27.90;;;17.60;;
27269;SDS011;14769;56.934;24.176;2022-10-16T01:28:52;26.35;;;16.35;;
27269;SDS011;14769;56.934;24.176;2022-10-16T01:30:17;22.88;;;16.33;;
27269;SDS011;14769;56.934;24.176;2022-10-16T01:33:00;23.55;;;16.92;;
27269;SDS011;14769;56.934;24.176;2022-10-16T01:34:18;25.08;;;17.23;;
27269;SDS011;14769;56.934;24.176;2022-10-16T01:35:32;26.52;;;17.48;;
27269;SDS011;14769;56.934;24.176;2022-10-16T01:36:53;28.17;;;17.20;;
27269;SDS011;14769;56.934;24.176;2022-10-16T01:38:19;24.60;;;18.20;;
27269;SDS011;14769;56.934;24.176;2022-10-16T01:39:28;27.75;;;17.65;;
27269;SDS011;14769;56.934;24.176;2022-10-16T01:40:34;26.33;;;18.80;;
27269;SDS011;14769;56.934;24.176;2022-10-16T01:41:41;27.77;;;18.00;;
27269;SDS011;14769;56.934;24.176;2022-10-16T01:42:49;26.67;;;18.80;;
27269;SDS011;14769;56.934;24.176;2022-10-16T01:44:02;29.30;;;18.52;;
27269;SDS011;14769;56.934;24.176;2022-10-16T01:45:11;23.90;;;17.90;;
27269;SDS011;14769;56.934;24.176;2022-10-16T01:46:19;28.45;;;18.20;;
27269;SDS011;14769;56.934;24.176;2022-10-16T01:47:23;27.27;;;19.05;;
27269;SDS011;14769;56.934;24.176;2022-10-16T01:48:28;26.33;;;19.15;;
27269;SDS011;14769;56.934;24.176;2022-10-16T01:49:35;28.83;;;18.67;;
27269;SDS011;14769;56.934;24.176;2022-10-16T01:50:44;30.23;;;19.15;;
27269;SDS011;14769;56.934;24.176;2022-10-16T01:51:58;26.73;;;19.15;;
27269;SDS011;14769;56.934;24.176;2022-10-16T01:53:04;28.13;;;18.73;;
27269;SDS011;14769;56.934;24.176;2022-10-16T01:54:08;31.02;;;19.95;;
27269;SDS011;14769;56.934;24.176;2022-10-16T01:55:17;29.17;;;20.50;;
27269;SDS011;14769;56.934;24.176;2022-10-16T01:57:42;30.42;;;19.90;;
27269;SDS011;14769;56.934;24.176;2022-10-16T01:58:59;28.38;;;19.85;;
27269;SDS011;14769;56.934;24.176;2022-10-16T02:00:11;31.15;;;20.08;;
27269;SDS011;14769;56.934;24.176;2022-10-16T02:01:24;30.58;;;19.88;;
27269;SDS011;14769;56.934;24.176;2022-10-16T02:02:32;36.97;;;20.58;;
27269;SDS011;14769;56.934;24.176;2022-10-16T02:03:39;35.42;;;20.45;;
27269;SDS011;14769;56.934;24.176;2022-10-16T02:04:45;29.83;;;19.88;;
27269;SDS011;14769;56.934;24.176;2022-10-16T02:05:55;33.75;;;21.40;;
27269;SDS011;14769;56.934;24.176;2022-10-16T02:06:59;33.33;;;21.00;;
27269;SDS011;14769;56.934;24.176;2022-10-16T02:08:02;34.50;;;22.38;;
27269;SDS011;14769;56.934;24.176;2022-10-16T02:09:06;27.58;;;20.63;;
27269;SDS011;14769;56.934;24.176;2022-10-16T02:10:08;30.20;;;20.77;;
27269;SDS011;14769;56.934;24.176;2022-10-16T02:11:11;32.92;;;21.63;;
27269;SDS011;14769;56.934;24.176;2022-10-16T02:12:25;31.02;;;21.20;;
27269;SDS011;14769;56.934;24.176;2022-10-16T02:13:33;30.88;;;21.77;;
27269;SDS011;14769;56.934;24.176;2022-10-16T02:15:43;32.60;;;20.65;;
27269;SDS011;14769;56.934;24.176;2022-10-16T02:16:47;32.70;;;22.88;;
27269;SDS011;14769;56.934;24.176;2022-10-16T02:17:49;35.55;;;21.70;;
27269;SDS011;14769;56.934;24.176;2022-10-16T02:18:51;38.17;;;24.33;;
27269;SDS011;14769;56.934;24.176;2022-10-16T02:19:54;35.47;;;22.38;;
27269;SDS011;14769;56.934;24.176;2022-10-16T02:21:00;32.63;;;22.55;;
27269;SDS011;14769;56.934;24.176;2022-10-16T02:24:52;34.38;;;21.70;;
27269;SDS011;14769;56.934;24.176;2022-10-16T02:25:59;33.05;;;22.08;;
27269;SDS011;14769;56.934;24.176;2022-10-16T02:27:12;34.03;;;22.45;;
27269;SDS011;14769;56.934;24.176;2022-10-16T02:28:39;36.35;;;23.20;;
27269;SDS011;14769;56.934;24.176;2022-10-16T02:29:53;34.38;;;22.10;;
27269;SDS011;14769;56.934;24.176;2022-10-16T02:31:10;36.15;;;22.40;;
27269;SDS011;14769;56.934;24.176;2022-10-16T02:32:15;33.78;;;22.42;;
27269;SDS011;14769;56.934;24.176;2022-10-16T02:33:21;34.20;;;22.77;;
27269;SDS011;14769;56.934;24.176;2022-10-16T02:34:24;36.00;;;22.98;;
27269;SDS011;14769;56.934;24.176;2022-10-16T02:35:27;36.95;;;23.52;;
27269;SDS011;14769;56.934;24.176;2022-10-16T02:36:32;33.97;;;23.23;;
27269;SDS011;14769;56.934;24.176;2022-10-16T02:37:36;35.42;;;22.98;;
27269;SDS011;14769;56.934;24.176;2022-10-16T02:38:42;34.00;;;23.58;;
27269;SDS011;14769;56.934;24.176;2022-10-16T02:39:44;38.50;;;23.45;;
27269;SDS011;14769;56.934;24.176;2022-10-16T02:40:46;34.70;;;23.80;;
27269;SDS011;14769;56.934;24.176;2022-10-16T02:41:51;32.72;;;22.48;;
27269;SDS011;14769;56.934;24.176;2022-10-16T02:43:11;38.83;;;23.85;;
27269;SDS011;14769;56.934;24.176;2022-10-16T02:44:14;31.92;;;22.77;;
27269;SDS011;14769;56.934;24.176;2022-10-16T02:45:17;35.42;;;23.20;;
27269;SDS011;14769;56.934;24.176;2022-10-16T02:46:19;34.35;;;24.13;;
27269;SDS011;14769;56.934;24.176;2022-10-16T02:47:21;34.90;;;22.65;;
27269;SDS011;14769;56.934;24.176;2022-10-16T02:48:24;37.83;;;24.08;;
27269;SDS011;14769;56.934;24.176;2022-10-16T02:49:28;37.90;;;24.65;;
27269;SDS011;14769;56.934;24.176;2022-10-16T02:50:31;37.22;;;24.05;;
27269;SDS011;14769;56.934;24.176;2022-10-16T02:51:33;34.80;;;23.77;;
27269;SDS011;14769;56.934;24.176;2022-10-16T02:52:35;39.33;;;24.90;;
27269;SDS011;14769;56.934;24.176;2022-10-16T02:53:37;39.47;;;24.85;;
27269;SDS011;14769;56.934;24.176;2022-10-16T02:54:42;37.28;;;24.33;;
27269;SDS011;14769;56.934;24.176;2022-10-16T02:55:44;37.25;;;24.48;;
27269;SDS011;14769;56.934;24.176;2022-10-16T02:56:46;39.92;;;24.17;;
27269;SDS011;14769;56.934;24.176;2022-10-16T02:57:48;35.85;;;23.30;;
27269;SDS011;14769;56.934;24.176;2022-10-16T02:58:50;37.38;;;24.13;;
27269;SDS011;14769;56.934;24.176;2022-10-16T02:59:52;39.22;;;25.13;;
27269;SDS011;14769;56.934;24.176;2022-10-16T03:00:54;38.33;;;25.00;;
27269;SDS011;14769;56.934;24.176;2022-10-16T03:01:58;34.33;;;24.80;;
27269;SDS011;14769;56.934;24.176;2022-10-16T03:03:03;34.90;;;24.77;;
27269;SDS011;14769;56.934;24.176;2022-10-16T03:04:16;36.17;;;24.20;;
27269;SDS011;14769;56.934;24.176;2022-10-16T03:06:08;38.05;;;25.52;;
27269;SDS011;14769;56.934;24.176;2022-10-16T03:07:46;35.35;;;24.38;;
27269;SDS011;14769;56.934;24.176;2022-10-16T03:08:55;37.03;;;24.73;;
27269;SDS011;14769;56.934;24.176;2022-10-16T03:11:44;35.80;;;24.27;;
27269;SDS011;14769;56.934;24.176;2022-10-16T03:12:50;37.08;;;25.00;;
27269;SDS011;14769;56.934;24.176;2022-10-16T03:15:49;38.33;;;25.00;;
27269;SDS011;14769;56.934;24.176;2022-10-16T03:16:54;43.17;;;26.25;;
27269;SDS011;14769;56.934;24.176;2022-10-16T03:18:10;38.80;;;25.45;;
27269;SDS011;14769;56.934;24.176;2022-10-16T03:19:21;35.83;;;24.50;;
27269;SDS011;14769;56.934;24.176;2022-10-16T03:20:36;41.22;;;25.33;;
27269;SDS011;14769;56.934;24.176;2022-10-16T03:21:45;40.95;;;26.17;;
27269;SDS011;14769;56.934;24.176;2022-10-16T03:23:00;39.67;;;25.38;;
27269;SDS011;14769;56.934;24.176;2022-10-16T03:24:06;39.67;;;25.80;;
27269;SDS011;14769;56.934;24.176;2022-10-16T03:25:09;41.17;;;26.40;;
27269;SDS011;14769;56.934;24.176;2022-10-16T03:26:24;40.58;;;26.65;;
27269;SDS011;14769;56.934;24.176;2022-10-16T03:27:27;40.05;;;25.88;;
27269;SDS011;14769;56.934;24.176;2022-10-16T03:28:31;37.33;;;25.63;;
27269;SDS011;14769;56.934;24.176;2022-10-16T03:29:36;42.20;;;27.00;;
27269;SDS011;14769;56.934;24.176;2022-10-16T03:30:45;39.75;;;26.98;;
27269;SDS011;14769;56.934;24.176;2022-10-16T03:31:51;38.40;;;26.33;;
27269;SDS011;14769;56.934;24.176;2022-10-16T03:32:57;38.10;;;26.80;;
27269;SDS011;14769;56.934;24.176;2022-10-16T03:34:09;40.15;;;27.08;;
27269;SDS011;14769;56.934;24.176;2022-10-16T03:35:38;40.90;;;25.42;;
27269;SDS011;14769;56.934;24.176;2022-10-16T03:37:10;35.97;;;25.25;;
27269;SDS011;14769;56.934;24.176;2022-10-16T03:38:36;43.75;;;26.35;;
27269;SDS011;14769;56.934;24.176;2022-10-16T03:40:07;39.67;;;25.25;;
27269;SDS011;14769;56.934;24.176;2022-10-16T03:41:22;42.30;;;26.10;;
27269;SDS011;14769;56.934;24.176;2022-10-16T03:42:40;40.83;;;27.02;;
27269;SDS011;14769;56.934;24.176;2022-10-16T03:43:48;39.97;;;26.80;;
27269;SDS011;14769;56.934;24.176;2022-10-16T03:47:57;42.25;;;25.45;;
27269;SDS011;14769;56.934;24.176;2022-10-16T03:49:29;44.88;;;26.90;;
27269;SDS011;14769;56.934;24.176;2022-10-16T03:50:46;44.80;;;27.95;;
27269;SDS011;14769;56.934;24.176;2022-10-16T03:51:52;42.83;;;27.60;;
27269;SDS011;14769;56.934;24.176;2022-10-16T03:53:01;44.63;;;27.85;;
27269;SDS011;14769;56.934;24.176;2022-10-16T03:54:05;46.03;;;28.20;;
27269;SDS011;14769;56.934;24.176;2022-10-16T03:55:20;41.85;;;27.55;;
27269;SDS011;14769;56.934;24.176;2022-10-16T03:59:41;40.42;;;27.05;;
27269;SDS011;14769;56.934;24.176;2022-10-16T04:00:43;39.63;;;26.52;;
27269;SDS011;14769;56.934;24.176;2022-10-16T04:01:46;39.25;;;27.38;;
27269;SDS011;14769;56.934;24.176;2022-10-16T04:02:48;44.00;;;26.80;;
27269;SDS011;14769;56.934;24.176;2022-10-16T04:03:51;39.40;;;27.00;;
27269;SDS011;14769;56.934;24.176;2022-10-16T04:04:53;40.38;;;27.33;;
27269;SDS011;14769;56.934;24.176;2022-10-16T04:05:55;41.20;;;27.95;;
27269;SDS011;14769;56.934;24.176;2022-10-16T04:07:01;41.17;;;27.92;;
27269;SDS011;14769;56.934;24.176;2022-10-16T04:08:03;39.50;;;28.38;;
27269;SDS011;14769;56.934;24.176;2022-10-16T04:09:05;43.88;;;26.65;;
27269;SDS011;14769;56.934;24.176;2022-10-16T04:10:09;40.83;;;27.27;;
27269;SDS011;14769;56.934;24.176;2022-10-16T04:11:11;40.70;;;27.92;;
27269;SDS011;14769;56.934;24.176;2022-10-16T04:12:14;39.95;;;27.75;;
27269;SDS011;14769;56.934;24.176;2022-10-16T04:13:27;40.60;;;27.02;;
27269;SDS011;14769;56.934;24.176;2022-10-16T04:14:29;38.25;;;26.67;;
27269;SDS011;14769;56.934;24.176;2022-10-16T04:15:38;41.95;;;26.75;;
27269;SDS011;14769;56.934;24.176;2022-10-16T04:16:43;39.85;;;27.23;;
27269;SDS011;14769;56.934;24.176;2022-10-16T04:17:49;39.08;;;27.60;;
27269;SDS011;14769;56.934;24.176;2022-10-16T04:18:53;40.75;;;26.52;;
27269;SDS011;14769;56.934;24.176;2022-10-16T04:19:58;36.28;;;26.30;;
27269;SDS011;14769;56.934;24.176;2022-10-16T04:21:08;37.05;;;26.25;;
27269;SDS011;14769;56.934;24.176;2022-10-16T04:22:14;35.50;;;26.60;;
27269;SDS011;14769;56.934;24.176;2022-10-16T04:23:22;40.47;;;27.60;;
27269;SDS011;14769;56.934;24.176;2022-10-16T04:24:31;39.38;;;27.13;;
27269;SDS011;14769;56.934;24.176;2022-10-16T04:25:34;42.30;;;27.67;;
27269;SDS011;14769;56.934;24.176;2022-10-16T04:26:36;38.45;;;26.50;;
27269;SDS011;14769;56.934;24.176;2022-10-16T04:27:39;46.35;;;27.65;;
27269;SDS011;14769;56.934;24.176;2022-10-16T04:28:46;39.42;;;27.42;;
27269;SDS011;14769;56.934;24.176;2022-10-16T04:29:51;41.53;;;27.63;;
27269;SDS011;14769;56.934;24.176;2022-10-16T04:30:56;42.88;;;27.83;;
27269;SDS011;14769;56.934;24.176;2022-10-16T04:31:58;42.75;;;26.80;;
27269;SDS011;14769;56.934;24.176;2022-10-16T04:33:01;38.20;;;27.27;;
27269;SDS011;14769;56.934;24.176;2022-10-16T04:34:03;38.35;;;26.58;;
27269;SDS011;14769;56.934;24.176;2022-10-16T04:35:09;43.83;;;27.50;;
27269;SDS011;14769;56.934;24.176;2022-10-16T04:36:11;40.08;;;27.50;;
27269;SDS011;14769;56.934;24.176;2022-10-16T04:37:14;43.50;;;27.17;;
27269;SDS011;14769;56.934;24.176;2022-10-16T04:38:16;42.67;;;27.90;;
27269;SDS011;14769;56.934;24.176;2022-10-16T04:39:23;44.70;;;27.05;;
27269;SDS011;14769;56.934;24.176;2022-10-16T04:40:25;40.90;;;27.38;;
27269;SDS011;14769;56.934;24.176;2022-10-16T04:41:30;38.28;;;26.17;;
27269;SDS011;14769;56.934;24.176;2022-10-16T04:42:35;38.40;;;27.30;;
27269;SDS011;14769;56.934;24.176;2022-10-16T04:43:41;45.35;;;27.48;;
27269;SDS011;14769;56.934;24.176;2022-10-16T04:44:44;43.55;;;26.95;;
27269;SDS011;14769;56.934;24.176;2022-10-16T04:45:47;41.45;;;26.83;;
27269;SDS011;14769;56.934;24.176;2022-10-16T04:46:52;43.45;;;27.63;;
27269;SDS011;14769;56.934;24.176;2022-10-16T04:47:59;40.28;;;26.90;;
27269;SDS011;14769;56.934;24.176;2022-10-16T04:49:02;39.00;;;27.13;;
27269;SDS011;14769;56.934;24.176;2022-10-16T04:50:06;41.53;;;26.83;;
27269;SDS011;14769;56.934;24.176;2022-10-16T04:51:09;39.25;;;27.27;;
27269;SDS011;14769;56.934;24.176;2022-10-16T04:52:12;42.38;;;27.73;;
27269;SDS011;14769;56.934;24.176;2022-10-16T04:53:17;41.00;;;27.27;;
27269;SDS011;14769;56.934;24.176;2022-10-16T04:54:19;41.00;;;27.48;;
27269;SDS011;14769;56.934;24.176;2022-10-16T04:55:21;46.88;;;28.55;;
27269;SDS011;14769;56.934;24.176;2022-10-16T04:56:26;42.38;;;27.38;;
27269;SDS011;14769;56.934;24.176;2022-10-16T04:57:29;44.55;;;28.67;;
27269;SDS011;14769;56.934;24.176;2022-10-16T04:58:36;46.00;;;28.00;;
27269;SDS011;14769;56.934;24.176;2022-10-16T04:59:38;45.38;;;28.55;;
27269;SDS011;14769;56.934;24.176;2022-10-16T05:00:41;45.42;;;28.65;;
27269;SDS011;14769;56.934;24.176;2022-10-16T05:01:46;46.08;;;27.88;;
27269;SDS011;14769;56.934;24.176;2022-10-16T05:02:53;44.40;;;28.83;;
27269;SDS011;14769;56.934;24.176;2022-10-16T05:03:56;45.85;;;28.95;;
27269;SDS011;14769;56.934;24.176;2022-10-16T05:05:00;46.83;;;29.80;;
27269;SDS011;14769;56.934;24.176;2022-10-16T05:06:06;50.70;;;28.85;;
27269;SDS011;14769;56.934;24.176;2022-10-16T05:07:10;50.80;;;29.85;;
27269;SDS011;14769;56.934;24.176;2022-10-16T05:08:12;45.97;;;28.88;;
27269;SDS011;14769;56.934;24.176;2022-10-16T05:09:20;48.08;;;29.40;;
27269;SDS011;14769;56.934;24.176;2022-10-16T05:10:29;52.53;;;28.95;;
27269;SDS011;14769;56.934;24.176;2022-10-16T05:11:46;47.88;;;29.70;;
27269;SDS011;14769;56.934;24.176;2022-10-16T05:12:58;54.95;;;29.85;;
27269;SDS011;14769;56.934;24.176;2022-10-16T05:14:28;53.30;;;30.10;;
27269;SDS011;14769;56.934;24.176;2022-10-16T05:24:03;57.55;;;30.02;;
27269;SDS011;14769;56.934;24.176;2022-10-16T05:25:17;58.67;;;31.48;;
27269;SDS011;14769;56.934;24.176;2022-10-16T05:26:20;56.35;;;31.38;;
27269;SDS011;14769;56.934;24.176;2022-10-16T05:27:29;52.17;;;30.98;;
27269;SDS011;14769;56.934;24.176;2022-10-16T05:31:26;54.33;;;31.05;;
27269;SDS011;14769;56.934;24.176;2022-10-16T05:32:38;56.60;;;31.60;;
27269;SDS011;14769;56.934;24.176;2022-10-16T05:33:45;58.90;;;32.92;;
27269;SDS011;14769;56.934;24.176;2022-10-16T05:34:47;56.65;;;32.33;;
27269;SDS011;14769;56.934;24.176;2022-10-16T05:35:49;62.58;;;32.58;;
27269;SDS011;14769;56.934;24.176;2022-10-16T05:36:52;59.88;;;34.50;;
27269;SDS011;14769;56.934;24.176;2022-10-16T05:37:54;65.80;;;34.45;;
27269;SDS011;14769;56.934;24.176;2022-10-16T05:39:02;57.97;;;33.33;;
27269;SDS011;14769;56.934;24.176;2022-10-16T05:40:06;60.30;;;34.05;;
27269;SDS011;14769;56.934;24.176;2022-10-16T05:41:09;60.58;;;35.05;;
27269;SDS011;14769;56.934;24.176;2022-10-16T05:42:13;59.53;;;34.85;;
27269;SDS011;14769;56.934;24.176;2022-10-16T05:43:15;59.20;;;35.00;;
27269;SDS011;14769;56.934;24.176;2022-10-16T05:44:19;58.03;;;34.47;;
27269;SDS011;14769;56.934;24.176;2022-10-16T05:45:25;61.25;;;34.60;;
27269;SDS011;14769;56.934;24.176;2022-10-16T05:46:26;60.95;;;35.33;;
27269;SDS011;14769;56.934;24.176;2022-10-16T05:47:29;66.70;;;36.60;;
27269;SDS011;14769;56.934;24.176;2022-10-16T05:48:32;60.20;;;35.30;;
27269;SDS011;14769;56.934;24.176;2022-10-16T05:51:20;59.92;;;33.60;;
27269;SDS011;14769;56.934;24.176;2022-10-16T05:52:23;64.82;;;35.55;;
27269;SDS011;14769;56.934;24.176;2022-10-16T05:53:29;70.18;;;37.28;;
27269;SDS011;14769;56.934;24.176;2022-10-16T05:54:33;67.80;;;36.67;;
27269;SDS011;14769;56.934;24.176;2022-10-16T05:55:37;61.95;;;36.20;;
27269;SDS011;14769;56.934;24.176;2022-10-16T05:56:39;63.30;;;35.75;;
27269;SDS011;14769;56.934;24.176;2022-10-16T05:57:42;68.60;;;37.20;;
27269;SDS011;14769;56.934;24.176;2022-10-16T05:58:45;67.22;;;36.42;;
27269;SDS011;14769;56.934;24.176;2022-10-16T05:59:55;64.07;;;35.25;;
27269;SDS011;14769;56.934;24.176;2022-10-16T06:00:59;65.35;;;36.75;;
27269;SDS011;14769;56.934;24.176;2022-10-16T06:02:04;62.15;;;35.83;;
27269;SDS011;14769;56.934;24.176;2022-10-16T06:03:06;68.38;;;36.53;;
27269;SDS011;14769;56.934;24.176;2022-10-16T06:04:12;61.10;;;34.42;;
27269;SDS011;14769;56.934;24.176;2022-10-16T06:05:17;62.13;;;35.50;;
27269;SDS011;14769;56.934;24.176;2022-10-16T06:06:20;64.72;;;37.13;;
27269;SDS011;14769;56.934;24.176;2022-10-16T06:07:25;63.13;;;36.55;;
27269;SDS011;14769;56.934;24.176;2022-10-16T06:08:28;61.85;;;36.78;;
27269;SDS011;14769;56.934;24.176;2022-10-16T06:09:30;63.03;;;37.38;;
27269;SDS011;14769;56.934;24.176;2022-10-16T06:10:32;58.20;;;34.95;;
27269;SDS011;14769;56.934;24.176;2022-10-16T06:11:35;60.97;;;36.13;;
27269;SDS011;14769;56.934;24.176;2022-10-16T06:12:38;58.75;;;35.13;;
27269;SDS011;14769;56.934;24.176;2022-10-16T06:13:40;62.42;;;37.50;;
27269;SDS011;14769;56.934;24.176;2022-10-16T06:14:45;57.92;;;35.72;;
27269;SDS011;14769;56.934;24.176;2022-10-16T06:15:48;62.78;;;36.83;;
27269;SDS011;14769;56.934;24.176;2022-10-16T06:16:50;58.58;;;35.92;;
27269;SDS011;14769;56.934;24.176;2022-10-16T06:17:56;60.22;;;35.60;;
27269;SDS011;14769;56.934;24.176;2022-10-16T06:19:01;58.38;;;35.63;;
27269;SDS011;14769;56.934;24.176;2022-10-16T06:20:09;58.65;;;36.10;;
27269;SDS011;14769;56.934;24.176;2022-10-16T06:22:45;56.92;;;35.20;;
27269;SDS011;14769;56.934;24.176;2022-10-16T06:23:51;57.28;;;35.88;;
27269;SDS011;14769;56.934;24.176;2022-10-16T06:31:58;52.55;;;32.45;;
27269;SDS011;14769;56.934;24.176;2022-10-16T06:37:40;61.47;;;33.78;;
27269;SDS011;14769;56.934;24.176;2022-10-16T06:39:01;56.88;;;33.88;;
27269;SDS011;14769;56.934;24.176;2022-10-16T06:40:10;53.35;;;34.47;;
27269;SDS011;14769;56.934;24.176;2022-10-16T06:41:17;57.25;;;35.03;;
27269;SDS011;14769;56.934;24.176;2022-10-16T06:42:21;58.33;;;33.83;;
27269;SDS011;14769;56.934;24.176;2022-10-16T06:43:33;56.33;;;35.00;;
27269;SDS011;14769;56.934;24.176;2022-10-16T06:44:38;52.30;;;33.95;;
27269;SDS011;14769;56.934;24.176;2022-10-16T06:45:43;56.03;;;35.03;;
27269;SDS011;14769;56.934;24.176;2022-10-16T06:46:56;53.58;;;33.33;;
27269;SDS011;14769;56.934;24.176;2022-10-16T06:47:58;58.75;;;34.78;;
27269;SDS011;14769;56.934;24.176;2022-10-16T06:49:01;56.47;;;34.83;;
27269;SDS011;14769;56.934;24.176;2022-10-16T06:50:04;60.15;;;35.28;;
27269;SDS011;14769;56.934;24.176;2022-10-16T06:51:11;58.47;;;36.17;;
27269;SDS011;14769;56.934;24.176;2022-10-16T06:52:15;65.07;;;36.97;;
27269;SDS011;14769;56.934;24.176;2022-10-16T06:53:17;59.53;;;36.00;;
27269;SDS011;14769;56.934;24.176;2022-10-16T06:54:19;58.33;;;35.67;;
27269;SDS011;14769;56.934;24.176;2022-10-16T06:55:21;56.58;;;36.65;;
27269;SDS011;14769;56.934;24.176;2022-10-16T06:56:24;57.10;;;35.40;;
27269;SDS011;14769;56.934;24.176;2022-10-16T06:57:27;56.17;;;36.10;;
27269;SDS011;14769;56.934;24.176;2022-10-16T06:58:29;61.53;;;37.22;;
27269;SDS011;14769;56.934;24.176;2022-10-16T06:59:31;57.75;;;34.50;;
27269;SDS011;14769;56.934;24.176;2022-10-16T07:00:33;57.35;;;36.15;;
27269;SDS011;14769;56.934;24.176;2022-10-16T07:01:35;60.95;;;36.55;;
27269;SDS011;14769;56.934;24.176;2022-10-16T07:02:37;59.25;;;36.60;;
27269;SDS011;14769;56.934;24.176;2022-10-16T07:03:39;63.63;;;36.67;;
27269;SDS011;14769;56.934;24.176;2022-10-16T07:04:43;62.60;;;37.08;;
27269;SDS011;14769;56.934;24.176;2022-10-16T07:05:45;64.97;;;36.67;;
27269;SDS011;14769;56.934;24.176;2022-10-16T07:06:47;62.05;;;36.72;;
27269;SDS011;14769;56.934;24.176;2022-10-16T07:07:48;65.50;;;36.97;;
27269;SDS011;14769;56.934;24.176;2022-10-16T07:08:50;64.20;;;38.72;;
27269;SDS011;14769;56.934;24.176;2022-10-16T07:09:53;63.80;;;37.78;;
27269;SDS011;14769;56.934;24.176;2022-10-16T07:10:58;60.63;;;37.25;;
27269;SDS011;14769;56.934;24.176;2022-10-16T07:12:06;62.60;;;37.85;;
27269;SDS011;14769;56.934;24.176;2022-10-16T07:13:13;59.85;;;36.42;;
27269;SDS011;14769;56.934;24.176;2022-10-16T07:14:20;57.50;;;36.63;;
27269;SDS011;14769;56.934;24.176;2022-10-16T07:15:22;58.88;;;36.55;;
27269;SDS011;14769;56.934;24.176;2022-10-16T07:16:29;62.22;;;37.70;;
27269;SDS011;14769;56.934;24.176;2022-10-16T07:17:33;60.10;;;36.92;;
27269;SDS011;14769;56.934;24.176;2022-10-16T07:18:35;58.10;;;37.38;;
27269;SDS011;14769;56.934;24.176;2022-10-16T07:19:38;64.85;;;37.72;;
27269;SDS011;14769;56.934;24.176;2022-10-16T07:20:39;60.55;;;37.65;;
27269;SDS011;14769;56.934;24.176;2022-10-16T07:21:41;63.58;;;38.05;;
27269;SDS011;14769;56.934;24.176;2022-10-16T07:22:43;61.03;;;36.97;;
27269;SDS011;14769;56.934;24.176;2022-10-16T07:23:45;61.03;;;38.00;;
27269;SDS011;14769;56.934;24.176;2022-10-16T07:24:54;57.72;;;36.47;;
27269;SDS011;14769;56.934;24.176;2022-10-16T07:25:55;60.97;;;37.65;;
27269;SDS011;14769;56.934;24.176;2022-10-16T07:26:58;60.55;;;38.10;;
27269;SDS011;14769;56.934;24.176;2022-10-16T07:28:00;58.17;;;36.45;;